sensor_id;sensor_type;location;lat;lon;timestamp;temperature;humidity
11505;DHT22;5809;53.262;10.408;2024-03-17T00:01:56;3.40;99.90
11505;DHT22;5809;53.262;10.408;2024-03-17T00:04:22;3.40;99.90
11505;DHT22;5809;53.262;10.408;2024-03-17T00:06:50;3.40;99.90
11505;DHT22;5809;53.262;10.408;2024-03-17T00:09:16;3.30;99.90
11505;DHT22;5809;53.262;10.408;2024-03-17T00:11:44;3.30;99.90
11505;DHT22;5809;53.262;10.408;2024-03-17T00:14:10;3.30;99.90
11505;DHT22;5809;53.262;10.408;2024-03-17T00:16:37;3.20;99.90
11505;DHT22;5809;53.262;10.408;2024-03-17T00:23:59;3.10;99.90
11505;DHT22;5809;53.262;10.408;2024-03-17T00:26:27;3.10;99.90
11505;DHT22;5809;53.262;10.408;2024-03-17T00:31:21;3.10;99.90
11505;DHT22;5809;53.262;10.408;2024-03-17T00:33:51;3.00;99.90
11505;DHT22;5809;53.262;10.408;2024-03-17T00:41:12;3.00;99.90
11505;DHT22;5809;53.262;10.408;2024-03-17T00:43:38;3.00;99.90
11505;DHT22;5809;53.262;10.408;2024-03-17T00:46:05;3.00;99.90
11505;DHT22;5809;53.262;10.408;2024-03-17T00:48:32;3.00;99.90
11505;DHT22;5809;53.262;10.408;2024-03-17T00:50:59;3.00;99.90
11505;DHT22;5809;53.262;10.408;2024-03-17T00:53:25;2.90;99.90
11505;DHT22;5809;53.262;10.408;2024-03-17T00:55:52;3.00;99.90
11505;DHT22;5809;53.262;10.408;2024-03-17T00:58:20;3.00;99.90
11505;DHT22;5809;53.262;10.408;2024-03-17T01:05:40;3.00;99.90
11505;DHT22;5809;53.262;10.408;2024-03-17T01:08:08;3.00;99.90
11505;DHT22;5809;53.262;10.408;2024-03-17T01:10:37;2.90;99.90
11505;DHT22;5809;53.262;10.408;2024-03-17T01:13:03;2.90;99.90
11505;DHT22;5809;53.262;10.408;2024-03-17T01:15:31;2.90;99.90
11505;DHT22;5809;53.262;10.408;2024-03-17T01:17:57;2.90;99.90
11505;DHT22;5809;53.262;10.408;2024-03-17T01:25:18;2.70;99.90
11505;DHT22;5809;53.262;10.408;2024-03-17T01:30:12;2.70;99.90
11505;DHT22;5809;53.262;10.408;2024-03-17T01:32:39;2.60;99.90
11505;DHT22;5809;53.262;10.408;2024-03-17T01:35:07;2.60;99.90
11505;DHT22;5809;53.262;10.408;2024-03-17T01:37:33;2.50;99.90
11505;DHT22;5809;53.262;10.408;2024-03-17T01:42:26;2.50;99.90
11505;DHT22;5809;53.262;10.408;2024-03-17T01:44:53;2.50;99.90
11505;DHT22;5809;53.262;10.408;2024-03-17T01:47:19;2.50;99.90
11505;DHT22;5809;53.262;10.408;2024-03-17T01:49:47;2.50;99.90
11505;DHT22;5809;53.262;10.408;2024-03-17T01:52:14;2.50;99.90
11505;DHT22;5809;53.262;10.408;2024-03-17T01:54:41;2.50;99.90
11505;DHT22;5809;53.262;10.408;2024-03-17T01:59:35;2.50;99.90
11505;DHT22;5809;53.262;10.408;2024-03-17T02:02:01;2.50;99.90
11505;DHT22;5809;53.262;10.408;2024-03-17T02:04:29;2.60;99.90
11505;DHT22;5809;53.262;10.408;2024-03-17T02:06:56;2.50;99.90
11505;DHT22;5809;53.262;10.408;2024-03-17T02:09:22;2.40;99.90
11505;DHT22;5809;53.262;10.408;2024-03-17T02:11:48;2.40;99.90
11505;DHT22;5809;53.262;10.408;2024-03-17T02:14:15;2.40;99.90
11505;DHT22;5809;53.262;10.408;2024-03-17T02:16:42;2.40;99.90
11505;DHT22;5809;53.262;10.408;2024-03-17T02:19:09;2.40;99.90
11505;DHT22;5809;53.262;10.408;2024-03-17T02:21:35;2.30;99.90
11505;DHT22;5809;53.262;10.408;2024-03-17T02:24:04;2.40;99.90
11505;DHT22;5809;53.262;10.408;2024-03-17T02:28:57;2.30;99.90
11505;DHT22;5809;53.262;10.408;2024-03-17T02:31:23;2.20;99.90
11505;DHT22;5809;53.262;10.408;2024-03-17T02:36:16;2.10;99.90
11505;DHT22;5809;53.262;10.408;2024-03-17T02:38:43;2.00;99.90
11505;DHT22;5809;53.262;10.408;2024-03-17T02:41:29;1.90;99.90
11505;DHT22;5809;53.262;10.408;2024-03-17T02:43:55;1.90;99.90
11505;DHT22;5809;53.262;10.408;2024-03-17T02:48:51;1.90;99.90
11505;DHT22;5809;53.262;10.408;2024-03-17T02:51:20;1.90;99.90
11505;DHT22;5809;53.262;10.408;2024-03-17T02:53:49;2.00;99.90
11505;DHT22;5809;53.262;10.408;2024-03-17T02:56:17;2.00;99.90
11505;DHT22;5809;53.262;10.408;2024-03-17T02:58:46;1.90;99.90
11505;DHT22;5809;53.262;10.408;2024-03-17T03:01:13;1.90;99.90
11505;DHT22;5809;53.262;10.408;2024-03-17T03:03:41;1.80;99.90
11505;DHT22;5809;53.262;10.408;2024-03-17T03:11:06;1.60;99.90
11505;DHT22;5809;53.262;10.408;2024-03-17T03:13:36;1.60;99.90
11505;DHT22;5809;53.262;10.408;2024-03-17T03:16:05;1.60;99.90
11505;DHT22;5809;53.262;10.408;2024-03-17T03:21:00;1.60;99.90
11505;DHT22;5809;53.262;10.408;2024-03-17T03:25:58;1.70;99.90
11505;DHT22;5809;53.262;10.408;2024-03-17T03:28:25;1.70;99.90
11505;DHT22;5809;53.262;10.408;2024-03-17T03:30:52;1.70;99.90
11505;DHT22;5809;53.262;10.408;2024-03-17T03:33:21;1.70;99.90
11505;DHT22;5809;53.262;10.408;2024-03-17T03:38:17;2.30;99.90
11505;DHT22;5809;53.262;10.408;2024-03-17T03:40:44;1.60;99.90
11505;DHT22;5809;53.262;10.408;2024-03-17T03:43:11;1.60;99.90
11505;DHT22;5809;53.262;10.408;2024-03-17T03:45:39;1.60;99.90
11505;DHT22;5809;53.262;10.408;2024-03-17T03:48:07;3.40;99.90
11505;DHT22;5809;53.262;10.408;2024-03-17T03:50:37;1.60;99.90
11505;DHT22;5809;53.262;10.408;2024-03-17T03:55:31;1.60;99.90
11505;DHT22;5809;53.262;10.408;2024-03-17T03:57:58;1.60;99.90
11505;DHT22;5809;53.262;10.408;2024-03-17T04:00:25;1.60;99.90
11505;DHT22;5809;53.262;10.408;2024-03-17T04:07:50;1.50;99.90
11505;DHT22;5809;53.262;10.408;2024-03-17T04:12:46;1.40;99.90
11505;DHT22;5809;53.262;10.408;2024-03-17T04:15:13;1.30;99.90
11505;DHT22;5809;53.262;10.408;2024-03-17T04:20:09;1.40;99.90
11505;DHT22;5809;53.262;10.408;2024-03-17T04:25:07;1.40;99.90
11505;DHT22;5809;53.262;10.408;2024-03-17T04:30:02;1.30;99.90
11505;DHT22;5809;53.262;10.408;2024-03-17T04:32:31;1.30;99.90
11505;DHT22;5809;53.262;10.408;2024-03-17T04:37:26;1.30;99.90
11505;DHT22;5809;53.262;10.408;2024-03-17T04:39:53;1.20;99.90
11505;DHT22;5809;53.262;10.408;2024-03-17T04:42:24;1.20;99.90
11505;DHT22;5809;53.262;10.408;2024-03-17T04:44:51;1.30;99.90
11505;DHT22;5809;53.262;10.408;2024-03-17T04:47:18;1.30;99.90
11505;DHT22;5809;53.262;10.408;2024-03-17T04:49:45;1.20;99.90
11505;DHT22;5809;53.262;10.408;2024-03-17T04:52:12;1.20;99.90
11505;DHT22;5809;53.262;10.408;2024-03-17T04:54:40;1.20;99.90
11505;DHT22;5809;53.262;10.408;2024-03-17T04:57:08;1.70;99.90
11505;DHT22;5809;53.262;10.408;2024-03-17T04:59:37;1.10;99.90
11505;DHT22;5809;53.262;10.408;2024-03-17T05:02:04;1.10;99.90
11505;DHT22;5809;53.262;10.408;2024-03-17T05:04:30;1.00;99.90
11505;DHT22;5809;53.262;10.408;2024-03-17T05:09:24;1.00;99.90
11505;DHT22;5809;53.262;10.408;2024-03-17T05:14:18;0.90;99.90
11505;DHT22;5809;53.262;10.408;2024-03-17T05:16:49;0.90;99.90
11505;DHT22;5809;53.262;10.408;2024-03-17T05:19:16;0.80;99.90
11505;DHT22;5809;53.262;10.408;2024-03-17T05:21:43;0.80;99.90
11505;DHT22;5809;53.262;10.408;2024-03-17T05:24:10;0.70;99.90
11505;DHT22;5809;53.262;10.408;2024-03-17T05:26:37;0.70;99.90
11505;DHT22;5809;53.262;10.408;2024-03-17T05:29:04;0.70;99.90
11505;DHT22;5809;53.262;10.408;2024-03-17T05:31:31;0.60;99.90
11505;DHT22;5809;53.262;10.408;2024-03-17T05:33:59;0.60;99.90
11505;DHT22;5809;53.262;10.408;2024-03-17T05:36:26;0.60;99.90
11505;DHT22;5809;53.262;10.408;2024-03-17T05:38:53;0.60;99.90
11505;DHT22;5809;53.262;10.408;2024-03-17T05:43:46;0.70;99.90
11505;DHT22;5809;53.262;10.408;2024-03-17T05:46:14;0.70;99.90
11505;DHT22;5809;53.262;10.408;2024-03-17T05:48:41;0.70;99.90
11505;DHT22;5809;53.262;10.408;2024-03-17T05:51:10;0.80;99.90
11505;DHT22;5809;53.262;10.408;2024-03-17T05:53:37;0.80;99.90
11505;DHT22;5809;53.262;10.408;2024-03-17T05:56:06;0.90;99.90
11505;DHT22;5809;53.262;10.408;2024-03-17T05:58:35;0.90;99.90
11505;DHT22;5809;53.262;10.408;2024-03-17T06:01:03;0.90;99.90
11505;DHT22;5809;53.262;10.408;2024-03-17T06:03:30;1.00;99.90
11505;DHT22;5809;53.262;10.408;2024-03-17T06:05:59;1.10;99.90
11505;DHT22;5809;53.262;10.408;2024-03-17T06:08:27;1.30;99.90
11505;DHT22;5809;53.262;10.408;2024-03-17T06:10:53;1.50;99.90
11505;DHT22;5809;53.262;10.408;2024-03-17T06:13:22;1.70;99.90
11505;DHT22;5809;53.262;10.408;2024-03-17T06:15:50;1.60;99.90
11505;DHT22;5809;53.262;10.408;2024-03-17T06:20:45;2.00;99.90
11505;DHT22;5809;53.262;10.408;2024-03-17T06:23:12;2.20;99.90
11505;DHT22;5809;53.262;10.408;2024-03-17T06:25:41;2.60;99.90
11505;DHT22;5809;53.262;10.408;2024-03-17T06:28:08;2.90;99.90
11505;DHT22;5809;53.262;10.408;2024-03-17T06:30:39;3.30;99.90
11505;DHT22;5809;53.262;10.408;2024-03-17T06:33:06;3.80;99.90
11505;DHT22;5809;53.262;10.408;2024-03-17T06:35:36;4.20;99.90
11505;DHT22;5809;53.262;10.408;2024-03-17T06:38:03;4.60;99.90
11505;DHT22;5809;53.262;10.408;2024-03-17T06:40:30;5.00;99.90
11505;DHT22;5809;53.262;10.408;2024-03-17T06:42:58;5.40;99.90
11505;DHT22;5809;53.262;10.408;2024-03-17T06:45:25;5.70;99.90
11505;DHT22;5809;53.262;10.408;2024-03-17T06:47:51;5.80;99.90
11505;DHT22;5809;53.262;10.408;2024-03-17T06:50:18;5.20;99.90
11505;DHT22;5809;53.262;10.408;2024-03-17T06:52:45;6.60;99.90
11505;DHT22;5809;53.262;10.408;2024-03-17T06:55:12;7.00;99.90
11505;DHT22;5809;53.262;10.408;2024-03-17T06:57:41;7.30;99.90
11505;DHT22;5809;53.262;10.408;2024-03-17T07:00:12;7.60;99.90
11505;DHT22;5809;53.262;10.408;2024-03-17T07:02:40;7.90;99.90
11505;DHT22;5809;53.262;10.408;2024-03-17T07:05:11;9.20;99.90
11505;DHT22;5809;53.262;10.408;2024-03-17T07:07:39;8.20;99.90
11505;DHT22;5809;53.262;10.408;2024-03-17T07:10:07;8.60;99.90
11505;DHT22;5809;53.262;10.408;2024-03-17T07:12:34;8.90;99.90
11505;DHT22;5809;53.262;10.408;2024-03-17T07:15:00;9.80;99.90
11505;DHT22;5809;53.262;10.408;2024-03-17T07:17:28;9.80;99.90
11505;DHT22;5809;53.262;10.408;2024-03-17T07:19:55;9.80;99.90
11505;DHT22;5809;53.262;10.408;2024-03-17T07:22:22;9.70;99.90
11505;DHT22;5809;53.262;10.408;2024-03-17T07:24:51;9.60;99.90
11505;DHT22;5809;53.262;10.408;2024-03-17T07:27:21;10.00;99.90
11505;DHT22;5809;53.262;10.408;2024-03-17T07:29:47;10.10;99.90
11505;DHT22;5809;53.262;10.408;2024-03-17T07:32:14;10.10;99.90
11505;DHT22;5809;53.262;10.408;2024-03-17T07:34:42;10.70;99.90
11505;DHT22;5809;53.262;10.408;2024-03-17T07:37:09;11.00;99.90
11505;DHT22;5809;53.262;10.408;2024-03-17T07:39:36;11.80;99.90
11505;DHT22;5809;53.262;10.408;2024-03-17T07:42:03;10.80;99.90
11505;DHT22;5809;53.262;10.408;2024-03-17T07:44:29;10.80;99.90
11505;DHT22;5809;53.262;10.408;2024-03-17T07:46:59;10.80;99.90
11505;DHT22;5809;53.262;10.408;2024-03-17T07:49:26;11.30;99.90
11505;DHT22;5809;53.262;10.408;2024-03-17T07:51:54;11.80;99.90
11505;DHT22;5809;53.262;10.408;2024-03-17T07:54:23;11.90;99.90
11505;DHT22;5809;53.262;10.408;2024-03-17T08:01:44;12.50;99.90
11505;DHT22;5809;53.262;10.408;2024-03-17T08:04:11;12.70;99.90
11505;DHT22;5809;53.262;10.408;2024-03-17T08:06:38;12.90;99.90
11505;DHT22;5809;53.262;10.408;2024-03-17T08:09:07;12.80;99.90
11505;DHT22;5809;53.262;10.408;2024-03-17T08:11:34;12.90;99.90
11505;DHT22;5809;53.262;10.408;2024-03-17T08:14:01;13.40;99.90
11505;DHT22;5809;53.262;10.408;2024-03-17T08:18:56;13.90;99.90
11505;DHT22;5809;53.262;10.408;2024-03-17T08:23:50;14.30;99.90
11505;DHT22;5809;53.262;10.408;2024-03-17T08:26:18;14.00;99.90
11505;DHT22;5809;53.262;10.408;2024-03-17T08:31:13;13.70;99.90
11505;DHT22;5809;53.262;10.408;2024-03-17T08:36:09;14.50;99.90
11505;DHT22;5809;53.262;10.408;2024-03-17T08:38:37;14.80;99.90
11505;DHT22;5809;53.262;10.408;2024-03-17T08:41:05;14.70;99.90
11505;DHT22;5809;53.262;10.408;2024-03-17T08:43:34;15.10;99.90
11505;DHT22;5809;53.262;10.408;2024-03-17T08:46:02;14.80;99.90
11505;DHT22;5809;53.262;10.408;2024-03-17T08:48:31;14.90;99.90
11505;DHT22;5809;53.262;10.408;2024-03-17T08:50:59;14.90;99.90
11505;DHT22;5809;53.262;10.408;2024-03-17T08:55:54;15.30;99.90
11505;DHT22;5809;53.262;10.408;2024-03-17T08:58:21;15.30;99.90
11505;DHT22;5809;53.262;10.408;2024-03-17T09:00:49;15.30;99.90
11505;DHT22;5809;53.262;10.408;2024-03-17T09:03:16;15.60;99.90
11505;DHT22;5809;53.262;10.408;2024-03-17T09:05:45;16.30;99.90
11505;DHT22;5809;53.262;10.408;2024-03-17T09:08:16;16.30;99.90
11505;DHT22;5809;53.262;10.408;2024-03-17T09:10:43;16.00;99.90
11505;DHT22;5809;53.262;10.408;2024-03-17T09:13:13;16.30;99.90
11505;DHT22;5809;53.262;10.408;2024-03-17T09:15:40;16.20;99.90
11505;DHT22;5809;53.262;10.408;2024-03-17T09:18:08;16.60;99.90
11505;DHT22;5809;53.262;10.408;2024-03-17T09:20:35;16.60;99.90
11505;DHT22;5809;53.262;10.408;2024-03-17T09:23:02;16.60;99.90
11505;DHT22;5809;53.262;10.408;2024-03-17T09:25:29;17.10;99.90
11505;DHT22;5809;53.262;10.408;2024-03-17T09:27:55;17.70;99.90
11505;DHT22;5809;53.262;10.408;2024-03-17T09:30:23;17.80;99.90
11505;DHT22;5809;53.262;10.408;2024-03-17T09:35:19;18.20;99.90
11505;DHT22;5809;53.262;10.408;2024-03-17T09:40:14;18.10;99.90
11505;DHT22;5809;53.262;10.408;2024-03-17T09:42:41;18.30;99.90
11505;DHT22;5809;53.262;10.408;2024-03-17T09:45:10;18.50;99.90
11505;DHT22;5809;53.262;10.408;2024-03-17T09:47:37;18.70;99.90
11505;DHT22;5809;53.262;10.408;2024-03-17T09:50:05;18.20;99.90
11505;DHT22;5809;53.262;10.408;2024-03-17T09:52:42;18.70;99.90
11505;DHT22;5809;53.262;10.408;2024-03-17T09:55:13;19.40;99.90
11505;DHT22;5809;53.262;10.408;2024-03-17T10:00:12;19.00;99.90
11505;DHT22;5809;53.262;10.408;2024-03-17T10:02:42;19.30;99.90
11505;DHT22;5809;53.262;10.408;2024-03-17T10:05:18;19.50;99.90
11505;DHT22;5809;53.262;10.408;2024-03-17T10:07:47;19.70;99.90
11505;DHT22;5809;53.262;10.408;2024-03-17T10:10:15;19.40;99.90
11505;DHT22;5809;53.262;10.408;2024-03-17T10:15:11;19.60;99.90
11505;DHT22;5809;53.262;10.408;2024-03-17T10:17:38;18.70;99.90
11505;DHT22;5809;53.262;10.408;2024-03-17T10:20:16;18.10;99.90
11505;DHT22;5809;53.262;10.408;2024-03-17T10:22:59;18.70;99.90
11505;DHT22;5809;53.262;10.408;2024-03-17T10:25:27;19.30;99.90
11505;DHT22;5809;53.262;10.408;2024-03-17T10:27:54;19.30;99.90
11505;DHT22;5809;53.262;10.408;2024-03-17T10:30:22;19.60;99.90
11505;DHT22;5809;53.262;10.408;2024-03-17T10:32:56;19.20;99.90
11505;DHT22;5809;53.262;10.408;2024-03-17T10:35:31;18.60;99.90
11505;DHT22;5809;53.262;10.408;2024-03-17T10:38:00;17.10;99.90
11505;DHT22;5809;53.262;10.408;2024-03-17T10:40:28;17.20;99.90
11505;DHT22;5809;53.262;10.408;2024-03-17T10:42:57;17.30;99.90
11505;DHT22;5809;53.262;10.408;2024-03-17T10:45:25;17.80;99.90
11505;DHT22;5809;53.262;10.408;2024-03-17T10:47:52;18.00;99.90
11505;DHT22;5809;53.262;10.408;2024-03-17T10:50:20;18.30;99.90
11505;DHT22;5809;53.262;10.408;2024-03-17T10:52:48;18.30;99.90
11505;DHT22;5809;53.262;10.408;2024-03-17T10:55:23;18.40;99.90
11505;DHT22;5809;53.262;10.408;2024-03-17T10:57:51;18.60;99.90
11505;DHT22;5809;53.262;10.408;2024-03-17T11:00:20;18.90;99.90
11505;DHT22;5809;53.262;10.408;2024-03-17T11:02:48;19.60;99.90
11505;DHT22;5809;53.262;10.408;2024-03-17T11:05:19;20.30;99.90
11505;DHT22;5809;53.262;10.408;2024-03-17T11:07:47;20.40;99.90
11505;DHT22;5809;53.262;10.408;2024-03-17T11:10:16;20.80;99.90
11505;DHT22;5809;53.262;10.408;2024-03-17T11:12:48;20.90;99.90
11505;DHT22;5809;53.262;10.408;2024-03-17T11:15:38;21.20;99.90
11505;DHT22;5809;53.262;10.408;2024-03-17T11:18:36;20.70;99.90
11505;DHT22;5809;53.262;10.408;2024-03-17T11:21:08;21.60;99.90
11505;DHT22;5809;53.262;10.408;2024-03-17T11:23:55;21.70;99.90
11505;DHT22;5809;53.262;10.408;2024-03-17T11:26:31;21.60;99.90
11505;DHT22;5809;53.262;10.408;2024-03-17T11:29:00;20.90;99.90
11505;DHT22;5809;53.262;10.408;2024-03-17T11:31:39;20.50;99.90
11505;DHT22;5809;53.262;10.408;2024-03-17T11:34:38;20.50;99.90
11505;DHT22;5809;53.262;10.408;2024-03-17T11:37:06;20.60;99.90
11505;DHT22;5809;53.262;10.408;2024-03-17T11:39:51;20.80;99.90
11505;DHT22;5809;53.262;10.408;2024-03-17T11:42:22;20.70;99.90
11505;DHT22;5809;53.262;10.408;2024-03-17T11:45:04;21.30;99.90
11505;DHT22;5809;53.262;10.408;2024-03-17T11:47:34;21.30;99.90
11505;DHT22;5809;53.262;10.408;2024-03-17T11:50:03;21.20;99.90
11505;DHT22;5809;53.262;10.408;2024-03-17T11:52:30;20.60;99.90
11505;DHT22;5809;53.262;10.408;2024-03-17T11:54:56;20.60;99.90
11505;DHT22;5809;53.262;10.408;2024-03-17T11:57:24;20.30;99.90
11505;DHT22;5809;53.262;10.408;2024-03-17T11:59:51;20.40;99.90
11505;DHT22;5809;53.262;10.408;2024-03-17T12:02:20;20.10;99.90
11505;DHT22;5809;53.262;10.408;2024-03-17T12:04:47;19.90;99.90
11505;DHT22;5809;53.262;10.408;2024-03-17T12:07:15;21.80;99.90
11505;DHT22;5809;53.262;10.408;2024-03-17T12:09:42;21.50;99.90
11505;DHT22;5809;53.262;10.408;2024-03-17T12:12:14;20.50;99.90
11505;DHT22;5809;53.262;10.408;2024-03-17T12:14:41;20.70;99.90
11505;DHT22;5809;53.262;10.408;2024-03-17T12:17:09;20.30;99.90
11505;DHT22;5809;53.262;10.408;2024-03-17T12:19:37;20.30;99.90
11505;DHT22;5809;53.262;10.408;2024-03-17T12:22:05;20.40;99.90
11505;DHT22;5809;53.262;10.408;2024-03-17T12:24:32;19.80;99.90
11505;DHT22;5809;53.262;10.408;2024-03-17T12:27:00;19.30;99.90
11505;DHT22;5809;53.262;10.408;2024-03-17T12:29:29;20.50;99.90
11505;DHT22;5809;53.262;10.408;2024-03-17T12:31:59;19.50;99.90
11505;DHT22;5809;53.262;10.408;2024-03-17T12:34:27;19.40;99.90
11505;DHT22;5809;53.262;10.408;2024-03-17T12:36:56;16.30;99.90
11505;DHT22;5809;53.262;10.408;2024-03-17T12:39:23;19.40;99.90
11505;DHT22;5809;53.262;10.408;2024-03-17T12:42:04;20.10;99.90
11505;DHT22;5809;53.262;10.408;2024-03-17T12:44:31;22.50;99.90
11505;DHT22;5809;53.262;10.408;2024-03-17T12:47:00;23.50;99.90
11505;DHT22;5809;53.262;10.408;2024-03-17T12:51:55;23.80;99.90
11505;DHT22;5809;53.262;10.408;2024-03-17T12:54:23;23.10;99.90
11505;DHT22;5809;53.262;10.408;2024-03-17T12:59:40;22.00;99.90
11505;DHT22;5809;53.262;10.408;2024-03-17T13:02:24;23.90;99.90
11505;DHT22;5809;53.262;10.408;2024-03-17T13:05:20;24.00;99.90
11505;DHT22;5809;53.262;10.408;2024-03-17T13:07:50;23.90;99.90
11505;DHT22;5809;53.262;10.408;2024-03-17T13:10:18;24.00;99.90
11505;DHT22;5809;53.262;10.408;2024-03-17T13:12:45;24.20;99.90
11505;DHT22;5809;53.262;10.408;2024-03-17T13:15:13;24.40;99.90
11505;DHT22;5809;53.262;10.408;2024-03-17T13:17:41;24.40;99.90
11505;DHT22;5809;53.262;10.408;2024-03-17T13:20:13;25.80;99.90
11505;DHT22;5809;53.262;10.408;2024-03-17T13:25:13;23.90;99.90
11505;DHT22;5809;53.262;10.408;2024-03-17T13:27:40;24.80;99.90
11505;DHT22;5809;53.262;10.408;2024-03-17T13:30:08;23.80;99.90
11505;DHT22;5809;53.262;10.408;2024-03-17T13:32:35;23.80;99.90
11505;DHT22;5809;53.262;10.408;2024-03-17T13:35:02;24.70;99.90
11505;DHT22;5809;53.262;10.408;2024-03-17T13:37:29;24.90;99.90
11505;DHT22;5809;53.262;10.408;2024-03-17T13:39:56;25.90;99.90
11505;DHT22;5809;53.262;10.408;2024-03-17T13:42:25;25.00;99.90
11505;DHT22;5809;53.262;10.408;2024-03-17T13:52:12;24.00;99.90
11505;DHT22;5809;53.262;10.408;2024-03-17T13:54:39;22.50;99.90
11505;DHT22;5809;53.262;10.408;2024-03-17T13:57:06;22.90;99.90
11505;DHT22;5809;53.262;10.408;2024-03-17T13:59:34;22.50;99.90
11505;DHT22;5809;53.262;10.408;2024-03-17T14:02:02;22.50;99.90
11505;DHT22;5809;53.262;10.408;2024-03-17T14:04:30;22.90;99.90
11505;DHT22;5809;53.262;10.408;2024-03-17T14:06:56;23.40;99.90
11505;DHT22;5809;53.262;10.408;2024-03-17T14:09:23;23.40;99.90
11505;DHT22;5809;53.262;10.408;2024-03-17T14:11:50;24.00;99.90
11505;DHT22;5809;53.262;10.408;2024-03-17T14:14:16;24.90;99.90
11505;DHT22;5809;53.262;10.408;2024-03-17T14:16:45;22.60;99.90
11505;DHT22;5809;53.262;10.408;2024-03-17T14:19:11;22.80;99.90
11505;DHT22;5809;53.262;10.408;2024-03-17T14:21:38;22.50;99.90
11505;DHT22;5809;53.262;10.408;2024-03-17T14:24:05;23.50;99.90
11505;DHT22;5809;53.262;10.408;2024-03-17T14:26:34;22.20;99.90
11505;DHT22;5809;53.262;10.408;2024-03-17T14:29:01;22.10;99.90
11505;DHT22;5809;53.262;10.408;2024-03-17T14:31:30;21.90;99.90
11505;DHT22;5809;53.262;10.408;2024-03-17T14:33:59;19.10;99.90
11505;DHT22;5809;53.262;10.408;2024-03-17T14:36:26;17.60;99.90
11505;DHT22;5809;53.262;10.408;2024-03-17T14:38:54;17.70;99.90
11505;DHT22;5809;53.262;10.408;2024-03-17T14:41:21;17.40;99.90
11505;DHT22;5809;53.262;10.408;2024-03-17T14:43:48;17.60;99.90
11505;DHT22;5809;53.262;10.408;2024-03-17T14:46:15;18.40;99.90
11505;DHT22;5809;53.262;10.408;2024-03-17T14:48:42;18.90;99.90
11505;DHT22;5809;53.262;10.408;2024-03-17T14:51:10;19.50;99.90
11505;DHT22;5809;53.262;10.408;2024-03-17T14:53:38;19.70;99.90
11505;DHT22;5809;53.262;10.408;2024-03-17T14:56:08;19.40;99.90
11505;DHT22;5809;53.262;10.408;2024-03-17T14:58:35;18.80;99.90
11505;DHT22;5809;53.262;10.408;2024-03-17T15:01:02;19.90;99.90
11505;DHT22;5809;53.262;10.408;2024-03-17T15:03:28;18.30;99.90
11505;DHT22;5809;53.262;10.408;2024-03-17T15:05:55;18.10;99.90
11505;DHT22;5809;53.262;10.408;2024-03-17T15:08:23;17.40;99.90
11505;DHT22;5809;53.262;10.408;2024-03-17T15:10:50;17.20;99.90
11505;DHT22;5809;53.262;10.408;2024-03-17T15:13:17;15.90;99.90
11505;DHT22;5809;53.262;10.408;2024-03-17T15:15:44;16.10;99.90
11505;DHT22;5809;53.262;10.408;2024-03-17T15:18:12;15.90;99.90
11505;DHT22;5809;53.262;10.408;2024-03-17T15:20:39;16.40;99.90
11505;DHT22;5809;53.262;10.408;2024-03-17T15:23:06;16.40;99.90
11505;DHT22;5809;53.262;10.408;2024-03-17T15:25:34;15.60;99.90
11505;DHT22;5809;53.262;10.408;2024-03-17T15:28:01;16.00;99.90
11505;DHT22;5809;53.262;10.408;2024-03-17T15:30:28;16.00;99.90
11505;DHT22;5809;53.262;10.408;2024-03-17T15:32:55;17.20;99.90
11505;DHT22;5809;53.262;10.408;2024-03-17T15:35:21;17.10;99.90
11505;DHT22;5809;53.262;10.408;2024-03-17T15:37:48;18.10;99.90
11505;DHT22;5809;53.262;10.408;2024-03-17T15:40:15;16.10;99.90
11505;DHT22;5809;53.262;10.408;2024-03-17T15:42:44;14.20;99.90
11505;DHT22;5809;53.262;10.408;2024-03-17T15:47:39;15.40;99.90
11505;DHT22;5809;53.262;10.408;2024-03-17T15:50:07;14.40;99.90
11505;DHT22;5809;53.262;10.408;2024-03-17T15:52:34;15.00;99.90
11505;DHT22;5809;53.262;10.408;2024-03-17T15:57:30;15.00;99.90
11505;DHT22;5809;53.262;10.408;2024-03-17T15:59:58;15.00;99.90
11505;DHT22;5809;53.262;10.408;2024-03-17T16:02:26;13.50;99.90
11505;DHT22;5809;53.262;10.408;2024-03-17T16:07:19;12.00;99.90
11505;DHT22;5809;53.262;10.408;2024-03-17T16:09:46;11.50;99.90
11505;DHT22;5809;53.262;10.408;2024-03-17T16:12:13;11.40;99.90
11505;DHT22;5809;53.262;10.408;2024-03-17T16:14:42;11.00;99.90
11505;DHT22;5809;53.262;10.408;2024-03-17T16:17:11;10.90;99.90
11505;DHT22;5809;53.262;10.408;2024-03-17T16:19:40;10.90;99.90
11505;DHT22;5809;53.262;10.408;2024-03-17T16:22:09;10.50;99.90
11505;DHT22;5809;53.262;10.408;2024-03-17T16:24:36;10.40;99.90
11505;DHT22;5809;53.262;10.408;2024-03-17T16:27:04;10.10;99.90
11505;DHT22;5809;53.262;10.408;2024-03-17T16:29:32;9.80;99.90
11505;DHT22;5809;53.262;10.408;2024-03-17T16:34:27;9.90;99.90
11505;DHT22;5809;53.262;10.408;2024-03-17T16:36:54;9.90;99.90
11505;DHT22;5809;53.262;10.408;2024-03-17T16:39:21;9.80;99.90
11505;DHT22;5809;53.262;10.408;2024-03-17T16:44:19;9.60;99.90
11505;DHT22;5809;53.262;10.408;2024-03-17T16:47:17;9.50;99.90
11505;DHT22;5809;53.262;10.408;2024-03-17T16:49:48;9.20;99.90
11505;DHT22;5809;53.262;10.408;2024-03-17T16:52:14;9.30;99.90
11505;DHT22;5809;53.262;10.408;2024-03-17T16:54:41;9.20;99.90
11505;DHT22;5809;53.262;10.408;2024-03-17T16:57:08;9.20;99.90
11505;DHT22;5809;53.262;10.408;2024-03-17T16:59:39;9.00;99.90
11505;DHT22;5809;53.262;10.408;2024-03-17T17:02:12;8.90;99.90
11505;DHT22;5809;53.262;10.408;2024-03-17T17:04:40;8.70;99.90
11505;DHT22;5809;53.262;10.408;2024-03-17T17:07:08;8.60;99.90
11505;DHT22;5809;53.262;10.408;2024-03-17T17:09:35;8.60;99.90
11505;DHT22;5809;53.262;10.408;2024-03-17T17:17:03;8.50;99.90
11505;DHT22;5809;53.262;10.408;2024-03-17T17:19:30;8.30;99.90
11505;DHT22;5809;53.262;10.408;2024-03-17T17:21:57;8.20;99.90
11505;DHT22;5809;53.262;10.408;2024-03-17T17:24:28;8.00;99.90
11505;DHT22;5809;53.262;10.408;2024-03-17T17:26:57;7.90;99.90
11505;DHT22;5809;53.262;10.408;2024-03-17T17:31:52;7.70;99.90
11505;DHT22;5809;53.262;10.408;2024-03-17T17:34:19;7.60;99.90
11505;DHT22;5809;53.262;10.408;2024-03-17T17:36:46;7.50;99.90
11505;DHT22;5809;53.262;10.408;2024-03-17T17:39:16;7.40;99.90
11505;DHT22;5809;53.262;10.408;2024-03-17T17:41:45;7.30;99.90
11505;DHT22;5809;53.262;10.408;2024-03-17T17:46:38;7.20;99.90
11505;DHT22;5809;53.262;10.408;2024-03-17T17:49:05;7.20;99.90
11505;DHT22;5809;53.262;10.408;2024-03-17T17:51:32;7.20;99.90
11505;DHT22;5809;53.262;10.408;2024-03-17T17:53:59;7.10;99.90
11505;DHT22;5809;53.262;10.408;2024-03-17T17:56:25;7.00;99.90
11505;DHT22;5809;53.262;10.408;2024-03-17T17:58:54;6.90;99.90
11505;DHT22;5809;53.262;10.408;2024-03-17T18:01:20;10.90;99.90
11505;DHT22;5809;53.262;10.408;2024-03-17T18:03:47;6.80;99.90
11505;DHT22;5809;53.262;10.408;2024-03-17T18:06:17;6.70;99.90
11505;DHT22;5809;53.262;10.408;2024-03-17T18:08:45;6.60;99.90